sensor_id;sensor_type;location;lat;lon;timestamp;P1;durP1;ratioP1;P2;durP2;ratioP2
24407;SDS011;12542;50.924;4.516;2023-07-30T00:01:41;10.75;;;2.65;;
24407;SDS011;12542;50.924;4.516;2023-07-30T00:04:07;10.20;;;2.22;;
24407;SDS011;12542;50.924;4.516;2023-07-30T00:06:33;11.27;;;2.85;;
24407;SDS011;12542;50.924;4.516;2023-07-30T00:08:58;10.45;;;2.25;;
24407;SDS011;12542;50.924;4.516;2023-07-30T00:11:24;6.80;;;2.17;;
24407;SDS011;12542;50.924;4.516;2023-07-30T00:13:50;7.63;;;2.20;;
24407;SDS011;12542;50.924;4.516;2023-07-30T00:16:15;10.63;;;2.15;;
24407;SDS011;12542;50.924;4.516;2023-07-30T00:18:44;10.43;;;3.00;;
24407;SDS011;12542;50.924;4.516;2023-07-30T00:21:10;8.52;;;2.17;;
24407;SDS011;12542;50.924;4.516;2023-07-30T00:23:36;8.05;;;2.38;;
24407;SDS011;12542;50.924;4.516;2023-07-30T00:26:01;11.63;;;2.80;;
24407;SDS011;12542;50.924;4.516;2023-07-30T00:28:27;9.43;;;2.35;;
24407;SDS011;12542;50.924;4.516;2023-07-30T00:30:53;9.07;;;2.42;;
24407;SDS011;12542;50.924;4.516;2023-07-30T00:33:18;9.52;;;2.78;;
24407;SDS011;12542;50.924;4.516;2023-07-30T00:35:44;10.88;;;2.60;;
24407;SDS011;12542;50.924;4.516;2023-07-30T00:38:10;11.20;;;2.58;;
24407;SDS011;12542;50.924;4.516;2023-07-30T00:40:42;13.68;;;3.33;;
24407;SDS011;12542;50.924;4.516;2023-07-30T00:43:07;7.13;;;2.47;;
24407;SDS011;12542;50.924;4.516;2023-07-30T00:45:33;13.13;;;3.25;;
24407;SDS011;12542;50.924;4.516;2023-07-30T00:47:59;6.22;;;1.98;;
24407;SDS011;12542;50.924;4.516;2023-07-30T00:50:25;10.73;;;2.50;;
24407;SDS011;12542;50.924;4.516;2023-07-30T00:52:51;11.02;;;2.65;;
24407;SDS011;12542;50.924;4.516;2023-07-30T00:55:19;11.10;;;2.45;;
24407;SDS011;12542;50.924;4.516;2023-07-30T00:57:45;8.13;;;2.58;;
24407;SDS011;12542;50.924;4.516;2023-07-30T01:00:11;18.48;;;3.35;;
24407;SDS011;12542;50.924;4.516;2023-07-30T01:02:37;11.98;;;2.95;;
24407;SDS011;12542;50.924;4.516;2023-07-30T01:05:03;13.00;;;2.75;;
24407;SDS011;12542;50.924;4.516;2023-07-30T01:10:52;12.02;;;2.70;;
24407;SDS011;12542;50.924;4.516;2023-07-30T01:13:18;16.45;;;3.08;;
24407;SDS011;12542;50.924;4.516;2023-07-30T01:15:44;9.40;;;2.30;;
24407;SDS011;12542;50.924;4.516;2023-07-30T01:18:13;12.18;;;2.35;;
24407;SDS011;12542;50.924;4.516;2023-07-30T01:20:38;14.43;;;2.50;;
24407;SDS011;12542;50.924;4.516;2023-07-30T01:23:05;19.75;;;2.85;;
24407;SDS011;12542;50.924;4.516;2023-07-30T01:25:32;13.18;;;2.20;;
24407;SDS011;12542;50.924;4.516;2023-07-30T01:28:01;10.13;;;2.58;;
24407;SDS011;12542;50.924;4.516;2023-07-30T01:30:35;8.70;;;2.10;;
24407;SDS011;12542;50.924;4.516;2023-07-30T01:33:04;13.43;;;2.38;;
24407;SDS011;12542;50.924;4.516;2023-07-30T01:35:31;10.50;;;2.67;;
24407;SDS011;12542;50.924;4.516;2023-07-30T01:37:57;10.82;;;2.35;;
24407;SDS011;12542;50.924;4.516;2023-07-30T01:40:23;10.20;;;2.05;;
24407;SDS011;12542;50.924;4.516;2023-07-30T01:42:49;10.18;;;2.13;;
24407;SDS011;12542;50.924;4.516;2023-07-30T01:45:15;13.27;;;2.85;;
24407;SDS011;12542;50.924;4.516;2023-07-30T01:47:41;14.13;;;2.28;;
24407;SDS011;12542;50.924;4.516;2023-07-30T01:50:09;11.75;;;2.30;;
24407;SDS011;12542;50.924;4.516;2023-07-30T01:52:35;9.52;;;2.85;;
24407;SDS011;12542;50.924;4.516;2023-07-30T01:55:00;12.93;;;2.00;;
24407;SDS011;12542;50.924;4.516;2023-07-30T01:57:26;14.55;;;2.17;;
24407;SDS011;12542;50.924;4.516;2023-07-30T01:59:52;11.85;;;2.30;;
24407;SDS011;12542;50.924;4.516;2023-07-30T02:02:18;19.35;;;2.67;;
24407;SDS011;12542;50.924;4.516;2023-07-30T02:04:44;13.95;;;2.35;;
24407;SDS011;12542;50.924;4.516;2023-07-30T02:07:09;14.23;;;2.28;;
24407;SDS011;12542;50.924;4.516;2023-07-30T02:09:35;14.32;;;2.60;;
24407;SDS011;12542;50.924;4.516;2023-07-30T02:12:03;11.75;;;2.45;;
24407;SDS011;12542;50.924;4.516;2023-07-30T02:14:29;15.13;;;2.55;;
24407;SDS011;12542;50.924;4.516;2023-07-30T02:16:54;8.85;;;2.10;;
24407;SDS011;12542;50.924;4.516;2023-07-30T02:19:22;11.00;;;2.03;;
24407;SDS011;12542;50.924;4.516;2023-07-30T02:21:48;11.45;;;2.28;;
24407;SDS011;12542;50.924;4.516;2023-07-30T02:24:13;12.98;;;2.15;;
24407;SDS011;12542;50.924;4.516;2023-07-30T02:26:39;12.35;;;1.98;;
24407;SDS011;12542;50.924;4.516;2023-07-30T02:29:05;11.73;;;2.20;;
24407;SDS011;12542;50.924;4.516;2023-07-30T02:31:31;11.18;;;2.17;;
24407;SDS011;12542;50.924;4.516;2023-07-30T02:33:57;10.52;;;2.03;;
24407;SDS011;12542;50.924;4.516;2023-07-30T02:36:23;10.50;;;1.85;;
24407;SDS011;12542;50.924;4.516;2023-07-30T02:38:49;13.00;;;2.63;;
24407;SDS011;12542;50.924;4.516;2023-07-30T02:41:15;10.02;;;2.00;;
24407;SDS011;12542;50.924;4.516;2023-07-30T02:43:41;9.10;;;2.05;;
24407;SDS011;12542;50.924;4.516;2023-07-30T02:46:07;10.63;;;2.30;;
24407;SDS011;12542;50.924;4.516;2023-07-30T02:48:33;10.25;;;2.50;;
24407;SDS011;12542;50.924;4.516;2023-07-30T02:50:58;10.88;;;2.00;;
24407;SDS011;12542;50.924;4.516;2023-07-30T02:53:24;16.30;;;2.30;;
24407;SDS011;12542;50.924;4.516;2023-07-30T02:55:50;15.73;;;2.78;;
24407;SDS011;12542;50.924;4.516;2023-07-30T02:58:15;13.52;;;2.42;;
24407;SDS011;12542;50.924;4.516;2023-07-30T03:00:41;17.00;;;2.85;;
24407;SDS011;12542;50.924;4.516;2023-07-30T03:03:07;13.45;;;3.05;;
24407;SDS011;12542;50.924;4.516;2023-07-30T03:05:32;13.35;;;2.20;;
24407;SDS011;12542;50.924;4.516;2023-07-30T03:07:58;13.60;;;2.28;;
24407;SDS011;12542;50.924;4.516;2023-07-30T03:10:24;12.40;;;2.30;;
24407;SDS011;12542;50.924;4.516;2023-07-30T03:12:49;13.38;;;2.60;;
24407;SDS011;12542;50.924;4.516;2023-07-30T03:15:15;13.38;;;2.15;;
24407;SDS011;12542;50.924;4.516;2023-07-30T03:17:40;14.85;;;2.20;;
24407;SDS011;12542;50.924;4.516;2023-07-30T03:20:06;13.77;;;1.98;;
24407;SDS011;12542;50.924;4.516;2023-07-30T03:22:33;16.60;;;2.25;;
24407;SDS011;12542;50.924;4.516;2023-07-30T03:24:59;14.45;;;3.08;;
24407;SDS011;12542;50.924;4.516;2023-07-30T03:27:24;13.50;;;2.15;;
24407;SDS011;12542;50.924;4.516;2023-07-30T03:29:50;12.68;;;2.08;;
24407;SDS011;12542;50.924;4.516;2023-07-30T03:32:16;15.88;;;2.30;;
24407;SDS011;12542;50.924;4.516;2023-07-30T03:34:41;21.40;;;2.03;;
24407;SDS011;12542;50.924;4.516;2023-07-30T03:37:07;12.25;;;2.45;;
24407;SDS011;12542;50.924;4.516;2023-07-30T03:39:33;12.00;;;2.03;;
24407;SDS011;12542;50.924;4.516;2023-07-30T03:41:58;12.07;;;2.63;;
24407;SDS011;12542;50.924;4.516;2023-07-30T03:44:24;9.88;;;1.75;;
24407;SDS011;12542;50.924;4.516;2023-07-30T03:46:50;15.10;;;2.42;;
24407;SDS011;12542;50.924;4.516;2023-07-30T03:49:15;13.32;;;2.17;;
24407;SDS011;12542;50.924;4.516;2023-07-30T03:51:41;10.10;;;2.15;;
24407;SDS011;12542;50.924;4.516;2023-07-30T03:54:07;10.98;;;2.22;;
24407;SDS011;12542;50.924;4.516;2023-07-30T03:56:32;12.20;;;1.95;;
24407;SDS011;12542;50.924;4.516;2023-07-30T03:58:58;13.18;;;2.63;;
24407;SDS011;12542;50.924;4.516;2023-07-30T04:01:24;16.65;;;2.47;;
24407;SDS011;12542;50.924;4.516;2023-07-30T04:03:50;12.48;;;2.05;;
24407;SDS011;12542;50.924;4.516;2023-07-30T04:06:15;17.92;;;2.03;;
24407;SDS011;12542;50.924;4.516;2023-07-30T04:08:42;17.05;;;2.00;;
24407;SDS011;12542;50.924;4.516;2023-07-30T04:11:07;15.52;;;2.60;;
24407;SDS011;12542;50.924;4.516;2023-07-30T04:13:33;13.30;;;2.45;;
24407;SDS011;12542;50.924;4.516;2023-07-30T04:15:59;17.70;;;2.38;;
24407;SDS011;12542;50.924;4.516;2023-07-30T04:18:25;13.45;;;2.65;;
24407;SDS011;12542;50.924;4.516;2023-07-30T04:20:56;13.02;;;2.20;;
24407;SDS011;12542;50.924;4.516;2023-07-30T04:23:21;14.07;;;2.17;;
24407;SDS011;12542;50.924;4.516;2023-07-30T04:25:50;13.75;;;2.35;;
24407;SDS011;12542;50.924;4.516;2023-07-30T04:28:16;12.93;;;2.25;;
24407;SDS011;12542;50.924;4.516;2023-07-30T04:30:42;14.18;;;2.55;;
24407;SDS011;12542;50.924;4.516;2023-07-30T04:33:08;10.90;;;2.10;;
24407;SDS011;12542;50.924;4.516;2023-07-30T04:35:34;11.07;;;2.42;;
24407;SDS011;12542;50.924;4.516;2023-07-30T04:38:00;12.95;;;2.25;;
24407;SDS011;12542;50.924;4.516;2023-07-30T04:40:25;17.67;;;3.17;;
24407;SDS011;12542;50.924;4.516;2023-07-30T04:42:51;13.63;;;2.13;;
24407;SDS011;12542;50.924;4.516;2023-07-30T04:45:17;10.93;;;2.05;;
24407;SDS011;12542;50.924;4.516;2023-07-30T04:47:42;15.90;;;2.00;;
24407;SDS011;12542;50.924;4.516;2023-07-30T04:50:08;19.40;;;3.30;;
24407;SDS011;12542;50.924;4.516;2023-07-30T04:52:34;16.42;;;2.22;;
24407;SDS011;12542;50.924;4.516;2023-07-30T04:54:59;17.00;;;2.70;;
24407;SDS011;12542;50.924;4.516;2023-07-30T04:57:25;13.93;;;2.58;;
24407;SDS011;12542;50.924;4.516;2023-07-30T04:59:53;12.98;;;1.92;;
24407;SDS011;12542;50.924;4.516;2023-07-30T05:02:21;15.93;;;2.97;;
24407;SDS011;12542;50.924;4.516;2023-07-30T05:04:47;7.75;;;2.15;;
24407;SDS011;12542;50.924;4.516;2023-07-30T05:07:15;15.82;;;2.42;;
24407;SDS011;12542;50.924;4.516;2023-07-30T05:09:41;10.13;;;2.28;;
24407;SDS011;12542;50.924;4.516;2023-07-30T05:12:06;11.48;;;2.67;;
24407;SDS011;12542;50.924;4.516;2023-07-30T05:14:32;10.38;;;2.05;;
24407;SDS011;12542;50.924;4.516;2023-07-30T05:16:58;9.55;;;1.80;;
24407;SDS011;12542;50.924;4.516;2023-07-30T05:19:23;17.35;;;3.28;;
24407;SDS011;12542;50.924;4.516;2023-07-30T05:21:49;20.08;;;2.70;;
24407;SDS011;12542;50.924;4.516;2023-07-30T05:24:15;18.05;;;2.40;;
24407;SDS011;12542;50.924;4.516;2023-07-30T05:26:40;12.90;;;2.13;;
24407;SDS011;12542;50.924;4.516;2023-07-30T05:29:06;12.15;;;2.38;;
24407;SDS011;12542;50.924;4.516;2023-07-30T05:31:32;9.73;;;2.20;;
24407;SDS011;12542;50.924;4.516;2023-07-30T05:33:57;16.77;;;2.33;;
24407;SDS011;12542;50.924;4.516;2023-07-30T05:36:23;23.60;;;3.53;;
24407;SDS011;12542;50.924;4.516;2023-07-30T05:38:51;16.08;;;2.28;;
24407;SDS011;12542;50.924;4.516;2023-07-30T05:41:16;15.88;;;2.85;;
24407;SDS011;12542;50.924;4.516;2023-07-30T05:43:42;19.80;;;2.50;;
24407;SDS011;12542;50.924;4.516;2023-07-30T05:46:08;15.75;;;2.85;;
24407;SDS011;12542;50.924;4.516;2023-07-30T05:48:33;14.80;;;1.88;;
24407;SDS011;12542;50.924;4.516;2023-07-30T05:50:59;17.42;;;2.42;;
24407;SDS011;12542;50.924;4.516;2023-07-30T05:53:25;11.85;;;2.17;;
24407;SDS011;12542;50.924;4.516;2023-07-30T05:55:50;13.27;;;2.33;;
24407;SDS011;12542;50.924;4.516;2023-07-30T05:58:16;15.63;;;2.22;;
24407;SDS011;12542;50.924;4.516;2023-07-30T06:00:41;16.00;;;2.63;;
24407;SDS011;12542;50.924;4.516;2023-07-30T06:03:07;13.00;;;2.05;;
24407;SDS011;12542;50.924;4.516;2023-07-30T06:05:38;18.75;;;2.47;;
24407;SDS011;12542;50.924;4.516;2023-07-30T06:08:09;24.10;;;2.58;;
24407;SDS011;12542;50.924;4.516;2023-07-30T06:10:38;17.10;;;2.85;;
24407;SDS011;12542;50.924;4.516;2023-07-30T06:13:05;17.83;;;2.20;;
24407;SDS011;12542;50.924;4.516;2023-07-30T06:15:31;9.32;;;2.90;;
24407;SDS011;12542;50.924;4.516;2023-07-30T06:17:57;13.38;;;2.10;;
24407;SDS011;12542;50.924;4.516;2023-07-30T06:20:23;19.23;;;2.42;;
24407;SDS011;12542;50.924;4.516;2023-07-30T06:22:49;18.75;;;2.70;;
24407;SDS011;12542;50.924;4.516;2023-07-30T06:25:14;19.00;;;2.80;;
24407;SDS011;12542;50.924;4.516;2023-07-30T06:27:40;12.73;;;1.98;;
24407;SDS011;12542;50.924;4.516;2023-07-30T06:30:06;23.33;;;2.80;;
24407;SDS011;12542;50.924;4.516;2023-07-30T06:32:32;15.77;;;3.30;;
24407;SDS011;12542;50.924;4.516;2023-07-30T06:34:57;11.30;;;2.05;;
24407;SDS011;12542;50.924;4.516;2023-07-30T06:37:23;14.30;;;3.50;;
24407;SDS011;12542;50.924;4.516;2023-07-30T06:39:49;14.13;;;2.50;;
24407;SDS011;12542;50.924;4.516;2023-07-30T06:42:14;17.13;;;2.00;;
24407;SDS011;12542;50.924;4.516;2023-07-30T06:44:40;13.30;;;1.90;;
24407;SDS011;12542;50.924;4.516;2023-07-30T06:47:06;12.85;;;2.60;;
24407;SDS011;12542;50.924;4.516;2023-07-30T06:49:31;13.07;;;1.95;;
24407;SDS011;12542;50.924;4.516;2023-07-30T06:51:59;19.17;;;2.60;;
24407;SDS011;12542;50.924;4.516;2023-07-30T06:54:25;17.90;;;2.70;;
24407;SDS011;12542;50.924;4.516;2023-07-30T06:56:50;20.90;;;2.90;;
24407;SDS011;12542;50.924;4.516;2023-07-30T06:59:16;16.77;;;2.85;;
24407;SDS011;12542;50.924;4.516;2023-07-30T07:01:42;15.65;;;2.25;;
24407;SDS011;12542;50.924;4.516;2023-07-30T07:04:07;17.92;;;2.90;;
24407;SDS011;12542;50.924;4.516;2023-07-30T07:06:33;11.63;;;1.98;;
24407;SDS011;12542;50.924;4.516;2023-07-30T07:09:00;11.52;;;2.17;;
24407;SDS011;12542;50.924;4.516;2023-07-30T07:11:26;14.18;;;3.00;;
24407;SDS011;12542;50.924;4.516;2023-07-30T07:13:51;13.50;;;2.30;;
24407;SDS011;12542;50.924;4.516;2023-07-30T07:16:19;12.93;;;1.70;;
24407;SDS011;12542;50.924;4.516;2023-07-30T07:18:46;17.67;;;2.80;;
24407;SDS011;12542;50.924;4.516;2023-07-30T07:21:13;15.13;;;2.83;;
24407;SDS011;12542;50.924;4.516;2023-07-30T07:23:39;11.57;;;2.38;;
24407;SDS011;12542;50.924;4.516;2023-07-30T07:26:05;11.57;;;2.13;;
24407;SDS011;12542;50.924;4.516;2023-07-30T07:28:31;15.27;;;2.45;;
24407;SDS011;12542;50.924;4.516;2023-07-30T07:30:56;13.00;;;2.75;;
24407;SDS011;12542;50.924;4.516;2023-07-30T07:33:22;15.82;;;2.33;;
24407;SDS011;12542;50.924;4.516;2023-07-30T07:35:48;12.82;;;2.40;;
24407;SDS011;12542;50.924;4.516;2023-07-30T07:38:13;12.10;;;2.40;;
24407;SDS011;12542;50.924;4.516;2023-07-30T07:40:39;11.57;;;2.28;;
24407;SDS011;12542;50.924;4.516;2023-07-30T07:43:05;13.38;;;2.47;;
24407;SDS011;12542;50.924;4.516;2023-07-30T07:45:32;12.10;;;2.28;;
24407;SDS011;12542;50.924;4.516;2023-07-30T07:47:58;12.55;;;1.92;;
24407;SDS011;12542;50.924;4.516;2023-07-30T07:50:23;14.52;;;2.70;;
24407;SDS011;12542;50.924;4.516;2023-07-30T07:52:49;11.88;;;1.92;;
24407;SDS011;12542;50.924;4.516;2023-07-30T07:55:16;13.10;;;1.73;;
24407;SDS011;12542;50.924;4.516;2023-07-30T07:57:42;13.15;;;2.75;;
24407;SDS011;12542;50.924;4.516;2023-07-30T08:00:07;12.20;;;1.83;;
24407;SDS011;12542;50.924;4.516;2023-07-30T08:02:34;10.82;;;2.50;;
24407;SDS011;12542;50.924;4.516;2023-07-30T08:04:59;9.15;;;2.20;;
24407;SDS011;12542;50.924;4.516;2023-07-30T08:07:25;8.38;;;1.63;;
24407;SDS011;12542;50.924;4.516;2023-07-30T08:09:51;12.05;;;1.83;;
24407;SDS011;12542;50.924;4.516;2023-07-30T08:12:17;16.38;;;2.42;;
24407;SDS011;12542;50.924;4.516;2023-07-30T08:14:45;11.68;;;2.65;;
24407;SDS011;12542;50.924;4.516;2023-07-30T08:17:10;10.10;;;2.05;;
24407;SDS011;12542;50.924;4.516;2023-07-30T08:19:36;14.00;;;2.05;;
24407;SDS011;12542;50.924;4.516;2023-07-30T08:22:02;10.68;;;1.85;;
24407;SDS011;12542;50.924;4.516;2023-07-30T08:24:28;10.45;;;1.90;;
24407;SDS011;12542;50.924;4.516;2023-07-30T08:26:53;9.90;;;1.83;;
24407;SDS011;12542;50.924;4.516;2023-07-30T08:29:19;11.50;;;2.20;;
24407;SDS011;12542;50.924;4.516;2023-07-30T08:31:45;10.80;;;1.92;;
24407;SDS011;12542;50.924;4.516;2023-07-30T08:34:11;11.95;;;2.20;;
24407;SDS011;12542;50.924;4.516;2023-07-30T08:36:37;8.60;;;1.85;;
24407;SDS011;12542;50.924;4.516;2023-07-30T08:39:02;9.57;;;1.63;;
24407;SDS011;12542;50.924;4.516;2023-07-30T08:41:29;11.73;;;1.65;;
24407;SDS011;12542;50.924;4.516;2023-07-30T08:43:54;10.50;;;1.65;;
24407;SDS011;12542;50.924;4.516;2023-07-30T08:46:20;14.15;;;1.90;;
24407;SDS011;12542;50.924;4.516;2023-07-30T08:48:46;10.70;;;1.83;;
24407;SDS011;12542;50.924;4.516;2023-07-30T08:51:12;11.18;;;2.05;;
24407;SDS011;12542;50.924;4.516;2023-07-30T08:53:39;11.07;;;2.05;;
24407;SDS011;12542;50.924;4.516;2023-07-30T08:56:05;6.82;;;1.95;;
24407;SDS011;12542;50.924;4.516;2023-07-30T08:58:32;10.55;;;1.42;;
24407;SDS011;12542;50.924;4.516;2023-07-30T09:00:59;9.85;;;1.40;;
24407;SDS011;12542;50.924;4.516;2023-07-30T09:03:28;8.82;;;1.33;;
24407;SDS011;12542;50.924;4.516;2023-07-30T09:05:55;5.97;;;1.38;;
24407;SDS011;12542;50.924;4.516;2023-07-30T09:08:21;8.90;;;1.85;;
24407;SDS011;12542;50.924;4.516;2023-07-30T09:10:47;7.57;;;1.38;;
24407;SDS011;12542;50.924;4.516;2023-07-30T09:13:20;3.75;;;0.93;;
24407;SDS011;12542;50.924;4.516;2023-07-30T09:15:48;4.03;;;1.08;;
24407;SDS011;12542;50.924;4.516;2023-07-30T09:18:16;13.07;;;1.50;;
24407;SDS011;12542;50.924;4.516;2023-07-30T09:20:43;5.70;;;1.92;;
24407;SDS011;12542;50.924;4.516;2023-07-30T09:23:09;7.53;;;1.23;;
24407;SDS011;12542;50.924;4.516;2023-07-30T09:25:36;5.47;;;1.10;;
24407;SDS011;12542;50.924;4.516;2023-07-30T09:28:02;5.88;;;1.05;;
24407;SDS011;12542;50.924;4.516;2023-07-30T09:30:28;5.95;;;1.17;;
24407;SDS011;12542;50.924;4.516;2023-07-30T09:32:55;6.93;;;1.30;;
24407;SDS011;12542;50.924;4.516;2023-07-30T09:35:22;8.38;;;1.63;;
24407;SDS011;12542;50.924;4.516;2023-07-30T09:37:58;8.02;;;1.48;;
24407;SDS011;12542;50.924;4.516;2023-07-30T09:40:32;6.13;;;1.25;;
24407;SDS011;12542;50.924;4.516;2023-07-30T09:42:59;9.32;;;1.42;;
24407;SDS011;12542;50.924;4.516;2023-07-30T09:45:26;4.97;;;1.15;;
24407;SDS011;12542;50.924;4.516;2023-07-30T09:47:53;5.07;;;1.17;;
24407;SDS011;12542;50.924;4.516;2023-07-30T09:50:21;7.55;;;2.10;;
24407;SDS011;12542;50.924;4.516;2023-07-30T09:52:47;7.28;;;1.27;;
24407;SDS011;12542;50.924;4.516;2023-07-30T09:55:16;8.27;;;1.33;;
24407;SDS011;12542;50.924;4.516;2023-07-30T09:57:43;9.35;;;1.88;;
24407;SDS011;12542;50.924;4.516;2023-07-30T10:00:09;10.52;;;1.33;;
24407;SDS011;12542;50.924;4.516;2023-07-30T10:02:39;14.00;;;2.45;;
24407;SDS011;12542;50.924;4.516;2023-07-30T10:05:10;12.23;;;2.03;;
24407;SDS011;12542;50.924;4.516;2023-07-30T10:07:38;13.45;;;1.88;;
24407;SDS011;12542;50.924;4.516;2023-07-30T10:10:11;6.88;;;1.45;;
24407;SDS011;12542;50.924;4.516;2023-07-30T10:12:37;9.27;;;1.90;;
24407;SDS011;12542;50.924;4.516;2023-07-30T10:15:06;11.07;;;2.53;;
24407;SDS011;12542;50.924;4.516;2023-07-30T10:17:32;9.02;;;1.50;;
24407;SDS011;12542;50.924;4.516;2023-07-30T10:20:02;9.27;;;1.90;;
24407;SDS011;12542;50.924;4.516;2023-07-30T10:22:47;10.68;;;2.08;;
24407;SDS011;12542;50.924;4.516;2023-07-30T10:25:27;8.35;;;1.70;;
24407;SDS011;12542;50.924;4.516;2023-07-30T10:30:55;7.38;;;1.80;;
24407;SDS011;12542;50.924;4.516;2023-07-30T10:33:22;8.05;;;1.45;;
24407;SDS011;12542;50.924;4.516;2023-07-30T10:35:53;7.35;;;1.40;;
24407;SDS011;12542;50.924;4.516;2023-07-30T10:38:29;7.82;;;1.10;;
24407;SDS011;12542;50.924;4.516;2023-07-30T10:43:42;10.10;;;1.60;;
24407;SDS011;12542;50.924;4.516;2023-07-30T10:46:11;9.10;;;1.80;;
24407;SDS011;12542;50.924;4.516;2023-07-30T10:48:42;8.98;;;2.08;;
24407;SDS011;12542;50.924;4.516;2023-07-30T10:51:09;9.57;;;1.50;;
24407;SDS011;12542;50.924;4.516;2023-07-30T10:53:38;8.10;;;1.50;;
24407;SDS011;12542;50.924;4.516;2023-07-30T10:56:07;6.03;;;1.17;;
24407;SDS011;12542;50.924;4.516;2023-07-30T10:58:35;7.85;;;1.50;;
24407;SDS011;12542;50.924;4.516;2023-07-30T11:01:02;8.10;;;1.30;;
24407;SDS011;12542;50.924;4.516;2023-07-30T11:03:32;6.20;;;1.52;;
24407;SDS011;12542;50.924;4.516;2023-07-30T11:05:58;10.95;;;1.23;;
24407;SDS011;12542;50.924;4.516;2023-07-30T11:08:35;10.07;;;1.25;;
24407;SDS011;12542;50.924;4.516;2023-07-30T11:11:08;8.18;;;1.15;;
24407;SDS011;12542;50.924;4.516;2023-07-30T11:13:45;8.73;;;1.85;;
24407;SDS011;12542;50.924;4.516;2023-07-30T11:16:12;6.80;;;1.25;;
24407;SDS011;12542;50.924;4.516;2023-07-30T11:18:38;7.45;;;1.60;;
24407;SDS011;12542;50.924;4.516;2023-07-30T11:21:05;9.25;;;1.55;;
24407;SDS011;12542;50.924;4.516;2023-07-30T11:23:32;6.55;;;1.33;;
24407;SDS011;12542;50.924;4.516;2023-07-30T11:26:00;5.75;;;1.35;;
24407;SDS011;12542;50.924;4.516;2023-07-30T11:28:34;7.95;;;1.30;;
24407;SDS011;12542;50.924;4.516;2023-07-30T11:31:04;5.97;;;1.20;;
24407;SDS011;12542;50.924;4.516;2023-07-30T11:33:32;8.68;;;1.45;;
24407;SDS011;12542;50.924;4.516;2023-07-30T11:36:00;8.68;;;1.60;;
24407;SDS011;12542;50.924;4.516;2023-07-30T11:38:27;8.02;;;1.55;;
24407;SDS011;12542;50.924;4.516;2023-07-30T11:40:54;8.02;;;1.20;;
24407;SDS011;12542;50.924;4.516;2023-07-30T11:43:21;5.95;;;1.67;;
24407;SDS011;12542;50.924;4.516;2023-07-30T11:45:49;9.02;;;1.90;;
24407;SDS011;12542;50.924;4.516;2023-07-30T11:50:58;7.32;;;1.40;;
24407;SDS011;12542;50.924;4.516;2023-07-30T11:53:29;8.57;;;1.23;;
24407;SDS011;12542;50.924;4.516;2023-07-30T11:56:15;9.95;;;1.45;;
24407;SDS011;12542;50.924;4.516;2023-07-30T11:59:00;3.90;;;1.00;;
24407;SDS011;12542;50.924;4.516;2023-07-30T12:01:29;8.40;;;1.20;;
24407;SDS011;12542;50.924;4.516;2023-07-30T12:03:57;5.85;;;1.58;;
24407;SDS011;12542;50.924;4.516;2023-07-30T12:06:23;7.68;;;1.80;;
24407;SDS011;12542;50.924;4.516;2023-07-30T12:08:51;6.20;;;1.50;;
24407;SDS011;12542;50.924;4.516;2023-07-30T12:11:18;7.90;;;0.93;;
24407;SDS011;12542;50.924;4.516;2023-07-30T12:13:47;5.30;;;0.90;;
24407;SDS011;12542;50.924;4.516;2023-07-30T12:16:15;5.18;;;0.85;;
24407;SDS011;12542;50.924;4.516;2023-07-30T12:18:41;6.45;;;1.35;;
24407;SDS011;12542;50.924;4.516;2023-07-30T12:21:06;8.10;;;1.60;;
24407;SDS011;12542;50.924;4.516;2023-07-30T12:23:33;6.65;;;0.90;;
24407;SDS011;12542;50.924;4.516;2023-07-30T12:25:59;5.00;;;1.02;;
24407;SDS011;12542;50.924;4.516;2023-07-30T12:28:26;9.80;;;1.67;;
24407;SDS011;12542;50.924;4.516;2023-07-30T12:30:51;4.30;;;0.88;;
24407;SDS011;12542;50.924;4.516;2023-07-30T12:33:19;3.63;;;0.88;;
24407;SDS011;12542;50.924;4.516;2023-07-30T12:35:47;3.92;;;0.90;;
24407;SDS011;12542;50.924;4.516;2023-07-30T12:38:15;4.63;;;1.20;;
24407;SDS011;12542;50.924;4.516;2023-07-30T12:40:41;5.40;;;0.80;;
24407;SDS011;12542;50.924;4.516;2023-07-30T12:43:06;2.28;;;0.70;;
24407;SDS011;12542;50.924;4.516;2023-07-30T12:45:34;8.10;;;1.00;;
24407;SDS011;12542;50.924;4.516;2023-07-30T12:48:00;5.28;;;1.00;;
24407;SDS011;12542;50.924;4.516;2023-07-30T12:50:26;5.50;;;0.90;;
24407;SDS011;12542;50.924;4.516;2023-07-30T12:52:52;6.82;;;1.00;;
24407;SDS011;12542;50.924;4.516;2023-07-30T12:55:17;5.88;;;0.93;;
24407;SDS011;12542;50.924;4.516;2023-07-30T12:57:44;4.28;;;1.58;;
24407;SDS011;12542;50.924;4.516;2023-07-30T13:00:12;8.55;;;1.27;;
24407;SDS011;12542;50.924;4.516;2023-07-30T13:02:38;3.88;;;1.00;;
24407;SDS011;12542;50.924;4.516;2023-07-30T13:05:03;5.30;;;1.00;;
24407;SDS011;12542;50.924;4.516;2023-07-30T13:07:29;6.13;;;1.10;;
24407;SDS011;12542;50.924;4.516;2023-07-30T13:10:05;6.13;;;1.30;;
24407;SDS011;12542;50.924;4.516;2023-07-30T13:12:32;4.65;;;0.95;;
24407;SDS011;12542;50.924;4.516;2023-07-30T13:14:58;5.65;;;0.90;;
24407;SDS011;12542;50.924;4.516;2023-07-30T13:17:25;3.67;;;0.80;;
24407;SDS011;12542;50.924;4.516;2023-07-30T13:19:50;4.53;;;1.10;;
24407;SDS011;12542;50.924;4.516;2023-07-30T13:22:16;6.20;;;1.25;;
24407;SDS011;12542;50.924;4.516;2023-07-30T13:24:42;5.15;;;1.27;;
24407;SDS011;12542;50.924;4.516;2023-07-30T13:27:07;5.68;;;0.95;;
24407;SDS011;12542;50.924;4.516;2023-07-30T13:29:33;5.03;;;1.55;;
24407;SDS011;12542;50.924;4.516;2023-07-30T13:31:59;7.07;;;1.00;;
24407;SDS011;12542;50.924;4.516;2023-07-30T13:34:25;5.57;;;0.98;;
24407;SDS011;12542;50.924;4.516;2023-07-30T13:36:50;6.00;;;1.45;;
24407;SDS011;12542;50.924;4.516;2023-07-30T13:39:16;6.03;;;1.48;;
24407;SDS011;12542;50.924;4.516;2023-07-30T13:41:41;2.85;;;1.10;;
24407;SDS011;12542;50.924;4.516;2023-07-30T13:44:08;6.10;;;1.27;;
24407;SDS011;12542;50.924;4.516;2023-07-30T13:46:35;5.07;;;1.20;;
24407;SDS011;12542;50.924;4.516;2023-07-30T13:49:00;8.00;;;1.20;;
24407;SDS011;12542;50.924;4.516;2023-07-30T13:51:26;6.85;;;1.00;;
24407;SDS011;12542;50.924;4.516;2023-07-30T13:53:56;4.50;;;1.00;;
24407;SDS011;12542;50.924;4.516;2023-07-30T13:56:26;5.90;;;1.20;;
24407;SDS011;12542;50.924;4.516;2023-07-30T13:58:52;3.72;;;1.13;;
24407;SDS011;12542;50.924;4.516;2023-07-30T14:01:17;8.77;;;1.20;;
24407;SDS011;12542;50.924;4.516;2023-07-30T14:03:43;5.15;;;1.02;;
24407;SDS011;12542;50.924;4.516;2023-07-30T14:06:09;7.30;;;1.40;;
24407;SDS011;12542;50.924;4.516;2023-07-30T14:08:35;4.50;;;1.45;;
24407;SDS011;12542;50.924;4.516;2023-07-30T14:11:01;6.38;;;1.35;;
24407;SDS011;12542;50.924;4.516;2023-07-30T14:13:26;6.38;;;1.60;;
24407;SDS011;12542;50.924;4.516;2023-07-30T14:15:52;4.28;;;1.33;;
24407;SDS011;12542;50.924;4.516;2023-07-30T14:18:18;7.28;;;1.77;;
24407;SDS011;12542;50.924;4.516;2023-07-30T14:20:45;7.03;;;1.17;;
24407;SDS011;12542;50.924;4.516;2023-07-30T14:23:11;6.72;;;1.50;;
24407;SDS011;12542;50.924;4.516;2023-07-30T14:25:37;5.78;;;1.30;;
24407;SDS011;12542;50.924;4.516;2023-07-30T14:28:04;8.27;;;1.30;;
24407;SDS011;12542;50.924;4.516;2023-07-30T14:30:29;7.32;;;1.33;;
24407;SDS011;12542;50.924;4.516;2023-07-30T14:32:55;7.57;;;2.00;;
24407;SDS011;12542;50.924;4.516;2023-07-30T14:35:21;10.45;;;1.70;;
24407;SDS011;12542;50.924;4.516;2023-07-30T14:37:47;4.50;;;1.30;;
24407;SDS011;12542;50.924;4.516;2023-07-30T14:40:13;5.32;;;1.35;;
24407;SDS011;12542;50.924;4.516;2023-07-30T14:42:39;3.80;;;1.20;;
24407;SDS011;12542;50.924;4.516;2023-07-30T14:45:05;6.63;;;1.58;;
24407;SDS011;12542;50.924;4.516;2023-07-30T14:47:32;9.13;;;1.25;;
24407;SDS011;12542;50.924;4.516;2023-07-30T14:49:58;5.15;;;1.48;;